British Envoy — MNAN4 — position and weather

sailwx.info

Track history (hours):
 
Tides and Currents Weather Stations Pressure Air Temp Water Temp Dewpoint Dewpoint Depression Visibility Wind Speed Wind Dir Waves Ship Positions

British Envoy

Last reported at 2016-Feb-06 04:04 UTC. Time now 2016-Feb-06 09:14 UTC.
Position S 29°53' E 031°02'.

Length 184.2 m; beam 27.4 m; draft 11.3 m.

Type: Tanker. MMSI: 235011280.

Date/timePositionNaut miles runAvg speedWind from/ knotsBaromVisibWave heightAir tempDewpointWater temp
2016-Feb-06 04:04S 29°53' E 031°02'0 0.0
2016-Feb-06 03:31S 29°53' E 031°02'0 0.0
2016-Feb-06 02:31S 29°53' E 031°02'0 0.0
2016-Feb-06 01:31S 29°53' E 031°02'0 0.0
2016-Feb-06 00:28S 29°53' E 031°02'0 0.0
2016-Feb-05 23:31S 29°53' E 031°02'0 0.0
2016-Feb-05 22:31S 29°53' E 031°02'0 0.0
2016-Feb-05 21:31S 29°53' E 031°02'0 0.0
2016-Feb-05 20:31S 29°53' E 031°02'0 0.0
2016-Feb-05 19:31S 29°53' E 031°02'0 0.0
2016-Feb-05 18:31S 29°53' E 031°02'0 0.0
2016-Feb-05 17:31S 29°53' E 031°02'0 0.0
2016-Feb-05 16:31S 29°53' E 031°02'0 0.0
2016-Feb-05 15:28S 29°53' E 031°02'0 0.0
2016-Feb-05 14:31S 29°53' E 031°02'0 0.0
2016-Feb-05 13:31S 29°53' E 031°02'0 0.0
2016-Feb-05 12:28S 29°53' E 031°02'0 0.0
2016-Feb-05 11:31S 29°53' E 031°02'0 0.0
2016-Feb-05 10:31S 29°53' E 031°02'0 0.0
2016-Feb-05 09:28S 29°53' E 031°02'0 0.0
2016-Feb-05 08:31S 29°53' E 031°02'0 0.0
2016-Feb-05 07:31S 29°53' E 031°02'0 0.0
2016-Feb-05 06:31S 29°53' E 031°02'0 0.0
2016-Feb-05 05:31S 29°53' E 031°02'0 0.0
2016-Feb-05 04:31S 29°53' E 031°02'75 3.8
2016-Feb-04 09:00S 31°06' E 030°42'16912.5 230 / 241015.510.8 1.023.020.7
2016-Feb-03 19:28S 33°06' E 028°23'19 9.1
2016-Feb-03 17:25S 33°18' E 028°06'17 8.6
2016-Feb-03 15:26S 33°29' E 027°49'8 8.5
2016-Feb-03 14:32S 33°34' E 027°42'4811.3
2016-Feb-03 10:15S 33°55' E 026°50'1113.9
2016-Feb-03 09:26S 33°55' E 026°36'2014.0
2016-Feb-03 08:00S 33°54' E 026°12'26 1.1 170 / 71010.6 5.4 1.022.320.6
2016-Feb-02 09:00S 33°48' E 025°42'0 0.0 200 / 251007.610.8 0.522.820.8
2016-Feb-01 14:00S 33°48' E 025°42'0 0.0 110 / 291003.1 5.4 2.023.318.6
2016-Feb-01 09:00S 33°48' E 025°42'0 0.0 070 / 151008.2 5.4 0.522.820.8
2016-Feb-01 06:00S 33°48' E 025°42'44 3.4 030 / 81010.2 2.2 0.522.121.2
2016-Jan-31 17:00S 34°24' E 025°12'15211.7 090 / 191012.4 5.4 0.523.121.6
2016-Jan-31 04:00S 35°00' E 022°12'13812.5 110 / 151016.5 5.4 1.022.621.7
2016-Jan-30 17:00S 34°54' E 019°24'7911.8 260 / 411017.6 5.4 2.022.120.7
2016-Jan-30 10:18S 34°03' E 018°11'1013.1
2016-Jan-30 09:33S 33°54' E 018°17'8 7.6
2016-Jan-30 08:33S 33°54' E 018°26'1 0.7
2016-Jan-30 07:29S 33°55' E 018°27'0 0.0
2016-Jan-30 06:32S 33°55' E 018°27'0 0.0
2016-Jan-30 05:29S 33°55' E 018°27'0 0.0
2016-Jan-30 04:32S 33°55' E 018°27'0 0.0
2016-Jan-30 02:08S 33°55' E 018°27'0 0.0
2016-Jan-30 01:32S 33°55' E 018°27'0 0.0
2016-Jan-30 00:17S 33°55' E 018°27'0 0.0
2016-Jan-29 22:32S 33°55' E 018°27'0 0.0
2016-Jan-29 21:29S 33°55' E 018°27'0 0.0
2016-Jan-29 19:32S 33°55' E 018°27'0 0.0
2016-Jan-29 18:32S 33°55' E 018°27'0 0.0
2016-Jan-29 17:32S 33°55' E 018°27'0 0.0
2016-Jan-29 16:32S 33°55' E 018°27'0 0.0
2016-Jan-29 15:32S 33°55' E 018°27'0 0.0
2016-Jan-29 14:32S 33°55' E 018°27'0 0.0
2016-Jan-29 13:32S 33°55' E 018°27'0 0.0
2016-Jan-29 12:32S 33°55' E 018°27'0 0.0
2016-Jan-29 11:32S 33°55' E 018°27'0 0.0
2016-Jan-29 10:32S 33°55' E 018°27'0 0.0
2016-Jan-29 09:32S 33°55' E 018°27'0 0.0
2016-Jan-29 08:32S 33°55' E 018°27'0 0.0
2016-Jan-29 07:32S 33°55' E 018°27'0 0.0
2016-Jan-29 06:32S 33°55' E 018°27'0 0.0
2016-Jan-29 05:32S 33°55' E 018°27'0 0.0
2016-Jan-29 04:32S 33°55' E 018°27'0 0.0
2016-Jan-29 03:32S 33°55' E 018°27'0 0.0
2016-Jan-29 02:32S 33°55' E 018°27'0 0.0
2016-Jan-29 01:32S 33°55' E 018°27'0 0.0
2016-Jan-29 00:32S 33°55' E 018°27'0 0.0
2016-Jan-28 23:32S 33°55' E 018°27'0 0.0
2016-Jan-28 22:32S 33°55' E 018°27'0 0.0
2016-Jan-28 21:32S 33°55' E 018°27'0 0.0
2016-Jan-28 20:32S 33°55' E 018°27'0 0.0
2016-Jan-28 19:32S 33°55' E 018°27'0 0.0
2016-Jan-28 18:32S 33°55' E 018°27'0 0.0
2016-Jan-28 17:32S 33°55' E 018°27'0 0.0
2016-Jan-28 16:32S 33°55' E 018°27'0 0.0
2016-Jan-28 15:32S 33°55' E 018°27'0 0.0
2016-Jan-28 14:32S 33°55' E 018°27'0 0.0
2016-Jan-28 13:32S 33°55' E 018°27'0 0.0
2016-Jan-28 12:32S 33°55' E 018°27'0 0.0
2016-Jan-28 11:32S 33°55' E 018°27'0 0.0
2016-Jan-28 10:32S 33°55' E 018°27'0 0.0
2016-Jan-28 09:32S 33°55' E 018°27'0 0.0
2016-Jan-28 08:32S 33°55' E 018°27'0 0.0
2016-Jan-28 07:32S 33°55' E 018°27'0 0.0
2016-Jan-28 06:32S 33°55' E 018°27'0 0.0
2016-Jan-28 05:32S 33°55' E 018°27'0 0.0
2016-Jan-28 04:32S 33°55' E 018°27'0 0.0
2016-Jan-28 03:32S 33°55' E 018°27'0 0.0
2016-Jan-28 02:32S 33°55' E 018°27'0 0.0
2016-Jan-28 01:32S 33°55' E 018°27'0 0.0
2016-Jan-28 00:32S 33°55' E 018°27'0 0.0
2016-Jan-27 23:32S 33°55' E 018°27'0 0.0
2016-Jan-27 22:32S 33°55' E 018°27'0 0.0
2016-Jan-27 21:32S 33°55' E 018°27'0 0.0
2016-Jan-27 20:32S 33°55' E 018°27'0 0.0
2016-Jan-27 19:32S 33°55' E 018°27'0 0.0
2016-Jan-27 18:32S 33°55' E 018°27'0 0.0
2016-Jan-27 17:32S 33°55' E 018°27'0 0.0
2016-Jan-27 16:32S 33°55' E 018°27'0 0.0
2016-Jan-27 15:32S 33°55' E 018°27'0 0.0
2016-Jan-27 14:32S 33°55' E 018°27'0 0.0
2016-Jan-27 13:32S 33°55' E 018°27'0 0.0
2016-Jan-27 12:29S 33°55' E 018°27'0 0.0
2016-Jan-27 11:32S 33°55' E 018°27'0 0.0
2016-Jan-27 10:32S 33°55' E 018°27'0 0.0
2016-Jan-27 09:32S 33°55' E 018°27'0 0.0
2016-Jan-27 08:32S 33°55' E 018°27'2 2.1
2016-Jan-27 07:33S 33°53' E 018°26'2 2.5
2016-Jan-27 06:33S 33°51' E 018°26'0 0.3
2016-Jan-27 05:33S 33°51' E 018°26'0 0.0
2016-Jan-27 04:30S 33°51' E 018°26'  
Track history (hours):
 
Tides and Currents Weather Stations Pressure Air Temp Water Temp Dewpoint Dewpoint Depression Visibility Wind Speed Wind Dir Waves Ship Positions

British Envoy

Last reported at 2016-Feb-06 04:04 UTC. Time now 2016-Feb-06 09:14 UTC.
Position S 29°53' E 031°02'.

Length 184.2 m; beam 27.4 m; draft 11.3 m.

Type: Tanker. MMSI: 235011280.

Date/timePositionNaut miles runAvg speedWind from/ knotsBaromVisibWave heightAir tempDewpointWater temp
2016-Feb-06 04:04S 29°53' E 031°02'0 0.0
2016-Feb-06 03:31S 29°53' E 031°02'0 0.0
2016-Feb-06 02:31S 29°53' E 031°02'0 0.0
2016-Feb-06 01:31S 29°53' E 031°02'0 0.0
2016-Feb-06 00:28S 29°53' E 031°02'0 0.0
2016-Feb-05 23:31S 29°53' E 031°02'0 0.0
2016-Feb-05 22:31S 29°53' E 031°02'0 0.0
2016-Feb-05 21:31S 29°53' E 031°02'0 0.0
2016-Feb-05 20:31S 29°53' E 031°02'0 0.0
2016-Feb-05 19:31S 29°53' E 031°02'0 0.0
2016-Feb-05 18:31S 29°53' E 031°02'0 0.0
2016-Feb-05 17:31S 29°53' E 031°02'0 0.0
2016-Feb-05 16:31S 29°53' E 031°02'0 0.0
2016-Feb-05 15:28S 29°53' E 031°02'0 0.0
2016-Feb-05 14:31S 29°53' E 031°02'0 0.0
2016-Feb-05 13:31S 29°53' E 031°02'0 0.0
2016-Feb-05 12:28S 29°53' E 031°02'0 0.0
2016-Feb-05 11:31S 29°53' E 031°02'0 0.0
2016-Feb-05 10:31S 29°53' E 031°02'0 0.0
2016-Feb-05 09:28S 29°53' E 031°02'0 0.0
2016-Feb-05 08:31S 29°53' E 031°02'0 0.0
2016-Feb-05 07:31S 29°53' E 031°02'0 0.0
2016-Feb-05 06:31S 29°53' E 031°02'0 0.0
2016-Feb-05 05:31S 29°53' E 031°02'0 0.0
2016-Feb-05 04:31S 29°53' E 031°02'75 3.8
2016-Feb-04 09:00S 31°06' E 030°42'16912.5 230 / 241015.510.8 1.023.020.7
2016-Feb-03 19:28S 33°06' E 028°23'19 9.1
2016-Feb-03 17:25S 33°18' E 028°06'17 8.6
2016-Feb-03 15:26S 33°29' E 027°49'8 8.5
2016-Feb-03 14:32S 33°34' E 027°42'4811.3
2016-Feb-03 10:15S 33°55' E 026°50'1113.9
2016-Feb-03 09:26S 33°55' E 026°36'2014.0
2016-Feb-03 08:00S 33°54' E 026°12'26 1.1 170 / 71010.6 5.4 1.022.320.6
2016-Feb-02 09:00S 33°48' E 025°42'0 0.0 200 / 251007.610.8 0.522.820.8
2016-Feb-01 14:00S 33°48' E 025°42'0 0.0 110 / 291003.1 5.4 2.023.318.6
2016-Feb-01 09:00S 33°48' E 025°42'0 0.0 070 / 151008.2 5.4 0.522.820.8
2016-Feb-01 06:00S 33°48' E 025°42'44 3.4 030 / 81010.2 2.2 0.522.121.2
2016-Jan-31 17:00S 34°24' E 025°12'15211.7 090 / 191012.4 5.4 0.523.121.6
2016-Jan-31 04:00S 35°00' E 022°12'13812.5 110 / 151016.5 5.4 1.022.621.7
2016-Jan-30 17:00S 34°54' E 019°24'7911.8 260 / 411017.6 5.4 2.022.120.7
2016-Jan-30 10:18S 34°03' E 018°11'1013.1
2016-Jan-30 09:33S 33°54' E 018°17'8 7.6
2016-Jan-30 08:33S 33°54' E 018°26'1 0.7
2016-Jan-30 07:29S 33°55' E 018°27'0 0.0
2016-Jan-30 06:32S 33°55' E 018°27'0 0.0
2016-Jan-30 05:29S 33°55' E 018°27'0 0.0
2016-Jan-30 04:32S 33°55' E 018°27'0 0.0
2016-Jan-30 02:08S 33°55' E 018°27'0 0.0
2016-Jan-30 01:32S 33°55' E 018°27'0 0.0
2016-Jan-30 00:17S 33°55' E 018°27'0 0.0
2016-Jan-29 22:32S 33°55' E 018°27'0 0.0
2016-Jan-29 21:29S 33°55' E 018°27'0 0.0
2016-Jan-29 19:32S 33°55' E 018°27'0 0.0
2016-Jan-29 18:32S 33°55' E 018°27'0 0.0
2016-Jan-29 17:32S 33°55' E 018°27'0 0.0
2016-Jan-29 16:32S 33°55' E 018°27'0 0.0
2016-Jan-29 15:32S 33°55' E 018°27'0 0.0
2016-Jan-29 14:32S 33°55' E 018°27'0 0.0
2016-Jan-29 13:32S 33°55' E 018°27'0 0.0
2016-Jan-29 12:32S 33°55' E 018°27'0 0.0
2016-Jan-29 11:32S 33°55' E 018°27'0 0.0
2016-Jan-29 10:32S 33°55' E 018°27'0 0.0
2016-Jan-29 09:32S 33°55' E 018°27'0 0.0
2016-Jan-29 08:32S 33°55' E 018°27'0 0.0
2016-Jan-29 07:32S 33°55' E 018°27'0 0.0
2016-Jan-29 06:32S 33°55' E 018°27'0 0.0
2016-Jan-29 05:32S 33°55' E 018°27'0 0.0
2016-Jan-29 04:32S 33°55' E 018°27'0 0.0
2016-Jan-29 03:32S 33°55' E 018°27'0 0.0
2016-Jan-29 02:32S 33°55' E 018°27'0 0.0
2016-Jan-29 01:32S 33°55' E 018°27'0 0.0
2016-Jan-29 00:32S 33°55' E 018°27'0 0.0
2016-Jan-28 23:32S 33°55' E 018°27'0 0.0
2016-Jan-28 22:32S 33°55' E 018°27'0 0.0
2016-Jan-28 21:32S 33°55' E 018°27'0 0.0
2016-Jan-28 20:32S 33°55' E 018°27'0 0.0
2016-Jan-28 19:32S 33°55' E 018°27'0 0.0
2016-Jan-28 18:32S 33°55' E 018°27'0 0.0
2016-Jan-28 17:32S 33°55' E 018°27'0 0.0
2016-Jan-28 16:32S 33°55' E 018°27'0 0.0
2016-Jan-28 15:32S 33°55' E 018°27'0 0.0
2016-Jan-28 14:32S 33°55' E 018°27'0 0.0
2016-Jan-28 13:32S 33°55' E 018°27'0 0.0
2016-Jan-28 12:32S 33°55' E 018°27'0 0.0
2016-Jan-28 11:32S 33°55' E 018°27'0 0.0
2016-Jan-28 10:32S 33°55' E 018°27'0 0.0
2016-Jan-28 09:32S 33°55' E 018°27'0 0.0
2016-Jan-28 08:32S 33°55' E 018°27'0 0.0
2016-Jan-28 07:32S 33°55' E 018°27'0 0.0
2016-Jan-28 06:32S 33°55' E 018°27'0 0.0
2016-Jan-28 05:32S 33°55' E 018°27'0 0.0
2016-Jan-28 04:32S 33°55' E 018°27'0 0.0
2016-Jan-28 03:32S 33°55' E 018°27'0 0.0
2016-Jan-28 02:32S 33°55' E 018°27'0 0.0
2016-Jan-28 01:32S 33°55' E 018°27'0 0.0
2016-Jan-28 00:32S 33°55' E 018°27'0 0.0
2016-Jan-27 23:32S 33°55' E 018°27'0 0.0
2016-Jan-27 22:32S 33°55' E 018°27'0 0.0
2016-Jan-27 21:32S 33°55' E 018°27'0 0.0
2016-Jan-27 20:32S 33°55' E 018°27'0 0.0
2016-Jan-27 19:32S 33°55' E 018°27'0 0.0
2016-Jan-27 18:32S 33°55' E 018°27'0 0.0
2016-Jan-27 17:32S 33°55' E 018°27'0 0.0
2016-Jan-27 16:32S 33°55' E 018°27'0 0.0
2016-Jan-27 15:32S 33°55' E 018°27'0 0.0
2016-Jan-27 14:32S 33°55' E 018°27'0 0.0
2016-Jan-27 13:32S 33°55' E 018°27'0 0.0
2016-Jan-27 12:29S 33°55' E 018°27'0 0.0
2016-Jan-27 11:32S 33°55' E 018°27'0 0.0
2016-Jan-27 10:32S 33°55' E 018°27'0 0.0
2016-Jan-27 09:32S 33°55' E 018°27'0 0.0
2016-Jan-27 08:32S 33°55' E 018°27'2 2.1
2016-Jan-27 07:33S 33°53' E 018°26'2 2.5
2016-Jan-27 06:33S 33°51' E 018°26'0 0.3
2016-Jan-27 05:33S 33°51' E 018°26'0 0.0
2016-Jan-27 04:30S 33°51' E 018°26'  

Dump ship's entire track history